createdAt,value
2018-03-27T00:01:41.607Z,78.47
2018-03-27T00:02:41.581Z,78.19
2018-03-27T00:04:36.011Z,78.38
2018-03-27T00:05:36.012Z,77.81
2018-03-27T00:07:31.961Z,78.38
2018-03-27T00:08:31.925Z,78.28
2018-03-27T00:10:27.378Z,77.90
2018-03-27T00:11:26.380Z,77.52
2018-03-27T00:13:21.318Z,78.00
2018-03-27T00:14:21.319Z,77.71
2018-03-27T00:16:16.250Z,77.84
2018-03-27T00:17:15.734Z,77.94
2018-03-27T00:19:09.168Z,77.28
2018-03-27T00:20:09.162Z,77.09
2018-03-27T00:22:03.068Z,77.75
2018-03-27T00:23:03.576Z,77.28
2018-03-27T00:24:59.479Z,76.99
2018-03-27T00:25:57.974Z,76.80
2018-03-27T00:27:53.377Z,76.99
2018-03-27T00:28:53.381Z,77.09
2018-03-27T00:30:49.334Z,76.90
2018-03-27T00:31:49.291Z,76.90
2018-03-27T00:33:42.754Z,76.99
2018-03-27T00:34:42.724Z,76.71
2018-03-27T00:36:36.174Z,76.71
2018-03-27T00:37:37.673Z,77.18
2018-03-27T00:39:31.125Z,76.80
2018-03-27T00:40:30.594Z,76.80
2018-03-27T00:42:25.533Z,77.18
2018-03-27T00:43:25.967Z,77.47
2018-03-27T00:45:18.975Z,77.37
2018-03-27T00:46:18.455Z,77.37
2018-03-27T00:48:11.881Z,77.37
2018-03-27T00:49:11.898Z,77.28
2018-03-27T00:51:05.356Z,77.28
2018-03-27T00:52:05.323Z,77.56
2018-03-27T00:54:00.282Z,77.09
2018-03-27T00:54:59.763Z,76.80
2018-03-27T00:56:55.712Z,76.90
2018-03-27T00:57:54.720Z,76.99
2018-03-27T00:59:48.661Z,76.99
2018-03-27T01:00:48.620Z,76.99
2018-03-27T01:02:43.057Z,77.62
2018-03-27T01:03:43.056Z,77.52
2018-03-27T01:05:37.010Z,78.00
2018-03-27T01:06:36.496Z,78.28
2018-03-27T01:08:29.893Z,78.28
2018-03-27T01:09:29.876Z,78.66
2018-03-27T01:11:23.832Z,78.85
2018-03-27T01:12:23.291Z,79.23
2018-03-27T01:14:18.752Z,79.80
2018-03-27T01:15:18.250Z,78.95
2018-03-27T01:17:12.181Z,79.71
2018-03-27T01:18:12.667Z,79.52
2018-03-27T01:20:05.577Z,79.80
2018-03-27T01:21:05.580Z,79.42
2018-03-27T01:23:00.025Z,79.90
2018-03-27T01:24:00.531Z,79.47
2018-03-27T01:25:54.480Z,80.14
2018-03-27T01:26:54.436Z,80.33
2018-03-27T01:28:48.839Z,80.04
2018-03-27T01:29:49.386Z,79.95
2018-03-27T01:31:43.775Z,80.52
2018-03-27T01:32:43.267Z,80.62
2018-03-27T01:34:37.668Z,80.52
2018-03-27T01:35:38.196Z,81.37
2018-03-27T01:37:32.100Z,80.80
2018-03-27T01:38:32.099Z,80.90
2018-03-27T01:40:27.062Z,80.43
2018-03-27T01:41:26.531Z,80.33
2018-03-27T01:43:19.999Z,80.71
2018-03-27T01:44:19.952Z,80.71
2018-03-27T01:46:14.912Z,80.62
2018-03-27T01:47:15.398Z,81.56
2018-03-27T01:49:08.424Z,80.80
2018-03-27T01:50:08.440Z,81.37
2018-03-27T01:52:04.824Z,80.99
2018-03-27T01:53:03.813Z,81.75
2018-03-27T01:54:57.275Z,81.75
2018-03-27T01:55:57.775Z,81.66
2018-03-27T01:57:53.195Z,81.81
2018-03-27T01:58:52.193Z,81.62
2018-03-27T02:00:46.614Z,81.90
2018-03-27T02:01:46.099Z,82.09
2018-03-27T02:03:40.590Z,81.99
2018-03-27T02:04:41.056Z,81.81
2018-03-27T02:06:34.982Z,82.09
2018-03-27T02:07:34.949Z,81.66
2018-03-27T02:09:29.385Z,82.09
2018-03-27T02:10:29.398Z,82.18
2018-03-27T02:12:25.349Z,81.71
2018-03-27T02:13:25.326Z,81.99
2018-03-27T02:15:19.783Z,82.47
2018-03-27T02:16:20.278Z,82.47
2018-03-27T02:18:14.194Z,83.04
2018-03-27T02:19:14.153Z,82.75
2018-03-27T02:21:09.109Z,83.42
2018-03-27T02:22:08.584Z,83.04
2018-03-27T02:24:02.000Z,83.23
2018-03-27T02:25:02.001Z,83.13
2018-03-27T02:26:56.467Z,83.32
2018-03-27T02:27:56.938Z,83.42
2018-03-27T02:29:51.381Z,83.13
2018-03-27T02:30:50.854Z,83.23
2018-03-27T02:32:45.785Z,83.51
2018-03-27T02:33:45.796Z,83.51
2018-03-27T02:35:41.221Z,83.80
2018-03-27T02:36:41.713Z,83.80
2018-03-27T02:38:36.144Z,83.23
2018-03-27T02:39:35.585Z,83.13
2018-03-27T02:41:32.027Z,83.13
2018-03-27T02:42:31.517Z,83.51
2018-03-27T02:44:25.987Z,83.13
2018-03-27T02:45:25.946Z,83.13
2018-03-27T02:47:20.903Z,82.94
2018-03-27T02:48:20.381Z,83.23
2018-03-27T02:50:13.846Z,83.37
2018-03-27T02:51:13.793Z,83.47
2018-03-27T02:53:10.246Z,83.47
2018-03-27T02:54:10.234Z,83.47
2018-03-27T02:56:05.703Z,83.94
2018-03-27T02:57:05.655Z,83.75
2018-03-27T02:59:02.595Z,83.75
2018-03-27T03:00:01.544Z,83.85
2018-03-27T03:01:55.970Z,84.42
2018-03-27T03:02:55.962Z,84.42
2018-03-27T03:04:50.371Z,84.51
2018-03-27T03:05:50.386Z,84.32
2018-03-27T03:07:43.830Z,84.42
2018-03-27T03:08:43.792Z,84.51
2018-03-27T03:10:39.756Z,84.42
2018-03-27T03:11:40.253Z,84.42
2018-03-27T03:13:36.180Z,84.32
2018-03-27T03:14:35.659Z,84.23
2018-03-27T03:16:30.097Z,84.80
2018-03-27T03:17:30.593Z,84.61
2018-03-27T03:19:23.487Z,84.61
2018-03-27T03:20:23.490Z,84.13
2018-03-27T03:22:17.934Z,84.42
2018-03-27T03:23:19.376Z,84.32
2018-03-27T03:25:12.347Z,84.23
2018-03-27T03:26:12.864Z,84.42
2018-03-27T03:28:07.286Z,84.23
2018-03-27T03:29:06.766Z,84.13
2018-03-27T03:31:03.711Z,84.13
2018-03-27T03:32:02.679Z,84.42
2018-03-27T03:33:58.647Z,84.51
2018-03-27T03:34:59.141Z,84.61
2018-03-27T03:36:53.566Z,83.75
2018-03-27T03:37:53.035Z,83.75
2018-03-27T03:39:48.494Z,83.94
2018-03-27T03:40:47.979Z,83.85
2018-03-27T03:42:40.893Z,83.94
2018-03-27T03:43:41.414Z,83.28
2018-03-27T03:45:37.318Z,84.04
2018-03-27T03:46:36.795Z,83.47
2018-03-27T03:48:32.689Z,83.37
2018-03-27T03:49:32.688Z,83.47
2018-03-27T03:51:29.130Z,83.47
2018-03-27T03:52:28.597Z,83.94
2018-03-27T03:54:24.550Z,84.13
2018-03-27T03:55:25.046Z,83.94
2018-03-27T03:57:17.949Z,83.94
2018-03-27T03:58:17.946Z,83.94
2018-03-27T04:00:12.883Z,84.32
2018-03-27T04:01:12.373Z,84.61
2018-03-27T04:03:05.811Z,84.70
2018-03-27T04:04:05.813Z,85.08
2018-03-27T04:06:00.764Z,84.61
2018-03-27T04:07:00.736Z,84.42
2018-03-27T04:08:54.634Z,84.51
2018-03-27T04:09:54.609Z,84.61
2018-03-27T04:11:50.059Z,84.51
2018-03-27T04:12:49.030Z,84.51
2018-03-27T04:14:43.976Z,84.51
2018-03-27T04:15:43.456Z,84.70
2018-03-27T04:17:38.405Z,83.85
2018-03-27T04:18:37.883Z,84.70
2018-03-27T04:20:32.815Z,84.42
2018-03-27T04:21:32.316Z,84.13
2018-03-27T04:23:26.773Z,84.23
2018-03-27T04:24:26.739Z,84.13
2018-03-27T04:26:20.683Z,84.23
2018-03-27T04:27:20.157Z,84.13
2018-03-27T04:29:16.054Z,84.51
2018-03-27T04:30:16.045Z,84.42
2018-03-27T04:32:12.989Z,84.32
2018-03-27T04:33:13.504Z,84.51
2018-03-27T04:35:07.923Z,84.42
2018-03-27T04:36:07.885Z,84.42
2018-03-27T04:38:02.833Z,84.23
2018-03-27T04:39:02.832Z,84.23
2018-03-27T04:40:59.255Z,84.23
2018-03-27T04:41:58.232Z,84.32
2018-03-27T04:43:51.711Z,84.51
2018-03-27T04:44:51.654Z,84.51
2018-03-27T04:46:46.597Z,84.23
2018-03-27T04:47:46.071Z,84.61
2018-03-27T04:49:43.526Z,84.70
2018-03-27T04:50:43.017Z,84.51
2018-03-27T04:52:39.040Z,84.42
2018-03-27T04:53:38.003Z,84.42
2018-03-27T04:55:34.455Z,84.32
2018-03-27T04:56:33.927Z,84.51
2018-03-27T04:58:28.404Z,83.75
2018-03-27T04:59:28.324Z,83.94
2018-03-27T05:01:21.777Z,83.94
2018-03-27T05:02:22.266Z,83.75
2018-03-27T05:04:15.194Z,83.85
2018-03-27T05:05:15.685Z,84.70
2018-03-27T05:07:10.105Z,84.32
2018-03-27T05:08:10.115Z,84.32
2018-03-27T05:10:04.451Z,84.23
2018-03-27T05:11:03.000Z,84.32
2018-03-27T05:12:57.422Z,84.23
2018-03-27T05:13:57.419Z,84.42
2018-03-27T05:15:51.848Z,83.94
2018-03-27T05:16:52.364Z,83.75
2018-03-27T05:18:46.295Z,84.04
2018-03-27T05:19:46.709Z,83.94
2018-03-27T05:21:41.664Z,83.85
2018-03-27T05:22:41.176Z,83.66
2018-03-27T05:24:36.093Z,83.66
2018-03-27T05:25:35.062Z,83.66
2018-03-27T05:27:30.011Z,83.47
2018-03-27T05:28:30.000Z,83.47
2018-03-27T05:30:24.911Z,83.66
2018-03-27T05:31:24.405Z,83.56
2018-03-27T05:33:19.872Z,83.75
2018-03-27T05:34:20.348Z,83.94
2018-03-27T05:36:15.279Z,84.42
2018-03-27T05:37:14.784Z,84.13
2018-03-27T05:39:09.181Z,84.32
2018-03-27T05:40:08.625Z,84.23
2018-03-27T05:42:03.586Z,84.32
2018-03-27T05:43:03.044Z,84.42
2018-03-27T05:44:58.952Z,83.75
2018-03-27T05:45:58.963Z,83.85
2018-03-27T05:47:52.399Z,83.94
2018-03-27T05:48:52.383Z,83.51
2018-03-27T05:50:48.838Z,83.70
2018-03-27T05:51:48.410Z,83.70
2018-03-27T05:53:43.266Z,83.61
2018-03-27T05:54:42.745Z,83.61
2018-03-27T05:56:38.690Z,82.94
2018-03-27T05:57:38.687Z,83.13
2018-03-27T05:59:33.618Z,82.94
2018-03-27T06:00:33.613Z,82.56
2018-03-27T06:02:29.035Z,82.85
2018-03-27T06:03:29.025Z,82.66
2018-03-27T06:05:23.443Z,82.75
2018-03-27T06:06:23.956Z,82.94
2018-03-27T06:08:19.877Z,83.13
2018-03-27T06:09:19.364Z,82.75
2018-03-27T06:11:15.853Z,82.37
2018-03-27T06:12:15.306Z,82.18
2018-03-27T06:14:10.239Z,82.18
2018-03-27T06:15:09.710Z,82.28
2018-03-27T06:17:04.131Z,81.62
2018-03-27T06:18:04.658Z,81.66
2018-03-27T06:19:57.583Z,81.33
2018-03-27T06:20:57.562Z,80.95
2018-03-27T06:22:51.992Z,81.18
2018-03-27T06:23:51.980Z,81.66
2018-03-27T06:25:48.439Z,80.90
2018-03-27T06:26:48.425Z,81.56
2018-03-27T06:28:44.354Z,80.99
2018-03-27T06:29:43.817Z,80.71
2018-03-27T06:31:39.782Z,80.33
2018-03-27T06:32:40.263Z,80.33
2018-03-27T06:34:34.674Z,80.33
2018-03-27T06:35:34.145Z,80.52
2018-03-27T06:37:29.117Z,80.43
2018-03-27T06:38:29.107Z,80.52
2018-03-27T06:40:22.999Z,80.24
2018-03-27T06:41:23.006Z,80.04
2018-03-27T06:43:17.929Z,80.33
2018-03-27T06:44:17.415Z,80.04
2018-03-27T06:46:11.373Z,80.24
2018-03-27T06:47:11.356Z,80.24
2018-03-27T06:49:05.310Z,80.24
2018-03-27T06:50:05.716Z,80.14
2018-03-27T06:51:59.644Z,79.76
2018-03-27T06:53:00.168Z,80.24
2018-03-27T06:54:55.609Z,79.57
2018-03-27T06:55:55.577Z,79.76
2018-03-27T06:57:49.529Z,79.42
2018-03-27T06:58:49.013Z,79.66
2018-03-27T07:00:45.452Z,79.23
2018-03-27T07:01:44.956Z,79.71
2018-03-27T07:03:38.910Z,79.04
2018-03-27T07:04:38.378Z,78.95
2018-03-27T07:06:34.777Z,79.61
2018-03-27T07:07:34.308Z,79.23
2018-03-27T07:09:29.247Z,79.04
2018-03-27T07:10:28.721Z,78.85
2018-03-27T07:12:24.621Z,79.14
2018-03-27T07:13:24.606Z,78.28
2018-03-27T07:15:19.093Z,78.28
2018-03-27T07:16:19.037Z,78.03
2018-03-27T07:18:12.979Z,77.94
2018-03-27T07:19:12.483Z,77.18
2018-03-27T07:21:06.921Z,76.61
2018-03-27T07:22:06.907Z,76.61
2018-03-27T07:24:01.334Z,76.71
2018-03-27T07:25:01.856Z,76.42
2018-03-27T07:26:54.830Z,76.32
2018-03-27T07:27:54.756Z,76.14
2018-03-27T07:29:49.173Z,75.47
2018-03-27T07:30:49.698Z,75.76
2018-03-27T07:32:44.122Z,75.19
2018-03-27T07:33:43.598Z,74.56
2018-03-27T07:35:38.031Z,74.94
2018-03-27T07:36:38.537Z,74.75
2018-03-27T07:38:32.433Z,74.66
2018-03-27T07:39:33.976Z,73.99
2018-03-27T07:41:28.379Z,74.18
2018-03-27T07:42:28.856Z,73.90
2018-03-27T07:44:25.315Z,73.55
2018-03-27T07:45:24.427Z,73.65
2018-03-27T07:47:19.377Z,72.89
2018-03-27T07:48:18.851Z,73.18
2018-03-27T07:50:12.290Z,72.99
2018-03-27T07:51:12.281Z,72.51
2018-03-27T07:53:05.740Z,72.51
2018-03-27T07:54:05.705Z,72.41
2018-03-27T07:56:00.669Z,72.13
2018-03-27T07:57:00.157Z,71.84
2018-03-27T07:58:55.102Z,71.59
2018-03-27T07:59:54.556Z,71.69
2018-03-27T08:01:49.494Z,71.12
2018-03-27T08:02:48.977Z,71.31
2018-03-27T08:04:42.939Z,70.54
2018-03-27T08:05:42.935Z,70.93
2018-03-27T08:07:37.874Z,69.98
2018-03-27T08:08:36.879Z,69.98
2018-03-27T08:10:31.344Z,70.36
2018-03-27T08:11:31.340Z,70.36
2018-03-27T08:13:24.806Z,69.88
2018-03-27T08:14:25.775Z,69.98
2018-03-27T08:16:19.213Z,69.60
2018-03-27T08:17:19.230Z,69.41
2018-03-27T08:19:13.679Z,69.31
2018-03-27T08:20:14.162Z,69.35
2018-03-27T08:22:09.547Z,69.15
2018-03-27T08:23:10.085Z,69.54
2018-03-27T08:25:03.023Z,68.77
2018-03-27T08:26:03.006Z,68.96
2018-03-27T08:27:56.507Z,68.96
2018-03-27T08:28:56.471Z,68.96
2018-03-27T08:30:50.920Z,68.87
2018-03-27T08:31:51.428Z,68.40
2018-03-27T08:33:45.368Z,68.59
2018-03-27T08:34:45.360Z,68.49
2018-03-27T08:36:39.783Z,68.11
2018-03-27T08:37:39.798Z,68.21
2018-03-27T08:39:34.263Z,68.21
2018-03-27T08:40:34.752Z,68.49
2018-03-27T08:42:28.711Z,68.49
2018-03-27T08:43:28.664Z,67.92
2018-03-27T08:45:23.649Z,67.76
2018-03-27T08:46:23.119Z,67.76
2018-03-27T08:48:19.990Z,67.29
2018-03-27T08:49:19.053Z,66.62
2018-03-27T08:51:14.020Z,66.59
2018-03-27T08:52:13.508Z,66.81
2018-03-27T08:54:07.967Z,66.91
2018-03-27T08:55:07.927Z,66.91
2018-03-27T08:57:01.882Z,66.24
2018-03-27T08:58:01.374Z,66.91
2018-03-27T08:59:54.815Z,66.43
2018-03-27T09:00:55.317Z,66.14
2018-03-27T09:02:49.188Z,65.95
2018-03-27T09:03:48.242Z,65.77
2018-03-27T09:05:42.686Z,65.58
2018-03-27T09:06:42.676Z,65.77
2018-03-27T09:08:38.653Z,65.38
2018-03-27T09:09:39.070Z,65.19
2018-03-27T09:11:35.053Z,65.29
2018-03-27T09:12:34.535Z,64.72
2018-03-27T09:14:31.008Z,65.38
2018-03-27T09:15:30.468Z,65.19
2018-03-27T09:17:27.413Z,64.43
2018-03-27T09:18:26.413Z,64.90
2018-03-27T09:20:20.847Z,63.99
2018-03-27T09:21:20.855Z,63.80
2018-03-27T09:23:17.311Z,63.80
2018-03-27T09:24:16.788Z,63.32
2018-03-27T09:26:10.252Z,63.80
2018-03-27T09:27:10.743Z,63.99
2018-03-27T09:29:04.608Z,64.84
2018-03-27T09:30:04.613Z,64.56
2018-03-27T09:32:00.587Z,64.84
2018-03-27T09:33:01.067Z,64.56
2018-03-27T09:34:55.508Z,64.56
2018-03-27T09:35:55.514Z,64.18
2018-03-27T09:37:48.450Z,63.80
2018-03-27T09:38:48.949Z,63.89
2018-03-27T09:40:43.379Z,63.54
2018-03-27T09:41:42.864Z,62.88
2018-03-27T09:43:36.301Z,62.68
2018-03-27T09:44:36.807Z,62.68
2018-03-27T09:46:30.257Z,62.72
2018-03-27T09:47:30.247Z,61.96
2018-03-27T09:49:24.696Z,61.73
2018-03-27T09:50:24.683Z,61.96
2018-03-27T09:52:18.127Z,61.07
2018-03-27T09:53:17.598Z,61.25
2018-03-27T09:55:14.073Z,61.64
2018-03-27T09:56:13.552Z,61.73
2018-03-27T09:58:07.012Z,61.35
2018-03-27T09:59:06.985Z,61.73
2018-03-27T10:01:01.435Z,60.97
2018-03-27T10:02:01.450Z,61.83
2018-03-27T10:03:57.910Z,61.45
2018-03-27T10:04:58.406Z,61.57
2018-03-27T10:06:51.374Z,61.57
2018-03-27T10:07:50.851Z,60.33
2018-03-27T10:09:45.287Z,59.57
2018-03-27T10:10:45.807Z,59.48
2018-03-27T10:12:40.267Z,58.81
2018-03-27T10:13:40.267Z,58.52
2018-03-27T10:15:34.686Z,56.52
2018-03-27T10:16:34.163Z,56.14
2018-03-27T10:18:27.569Z,56.04
2018-03-27T10:19:27.567Z,56.14
2018-03-27T10:21:22.521Z,55.66
2018-03-27T10:22:22.002Z,56.43
2018-03-27T10:24:16.963Z,55.28
2018-03-27T10:25:16.447Z,55.19
2018-03-27T10:27:09.920Z,54.71
2018-03-27T10:28:09.914Z,54.04
2018-03-27T10:30:05.825Z,54.14
2018-03-27T10:31:04.315Z,54.45
2018-03-27T10:32:59.323Z,54.07
2018-03-27T10:33:59.274Z,53.78
2018-03-27T10:35:53.712Z,52.73
2018-03-27T10:36:54.733Z,52.26
2018-03-27T10:38:48.160Z,51.40
2018-03-27T10:39:47.616Z,51.21
2018-03-27T10:41:41.066Z,50.85
2018-03-27T10:42:41.050Z,49.42
2018-03-27T10:44:34.524Z,49.52
2018-03-27T10:45:34.510Z,48.47
2018-03-27T10:47:29.457Z,48.37
2018-03-27T10:48:29.478Z,48.57
2018-03-27T10:50:24.925Z,48.37
2018-03-27T10:51:24.921Z,48.57
2018-03-27T10:53:18.356Z,47.42
2018-03-27T10:54:18.369Z,48.37
2018-03-27T10:56:12.848Z,48.75
2018-03-27T10:57:12.823Z,48.47
2018-03-27T10:59:08.794Z,48.49
2018-03-27T11:00:08.726Z,48.30
2018-03-27T11:02:04.691Z,47.63
2018-03-27T11:03:04.690Z,47.54
2018-03-27T11:04:59.139Z,46.87
2018-03-27T11:05:59.125Z,46.48
2018-03-27T11:07:54.580Z,46.30
2018-03-27T11:08:53.575Z,46.58
2018-03-27T11:10:49.536Z,46.48
2018-03-27T11:11:48.011Z,46.39
2018-03-27T11:13:44.001Z,46.58
2018-03-27T11:14:43.955Z,46.87
2018-03-27T11:16:38.426Z,46.58
2018-03-27T11:17:38.404Z,46.77
2018-03-27T11:19:32.877Z,46.20
2018-03-27T11:20:32.861Z,45.92
2018-03-27T11:22:26.326Z,46.32
2018-03-27T11:23:26.292Z,45.84
2018-03-27T11:25:21.248Z,45.34
2018-03-27T11:26:20.733Z,46.20
2018-03-27T11:28:16.225Z,45.46
2018-03-27T11:29:16.194Z,45.65
2018-03-27T11:31:09.678Z,45.17
2018-03-27T11:32:09.647Z,44.41
2018-03-27T11:34:03.146Z,45.01
2018-03-27T11:35:03.124Z,44.62
2018-03-27T11:36:56.584Z,43.66
2018-03-27T11:37:56.573Z,44.05
2018-03-27T11:39:53.037Z,44.62
2018-03-27T11:40:52.510Z,44.62
2018-03-27T11:42:45.958Z,43.66
2018-03-27T11:43:45.961Z,43.38
2018-03-27T11:45:40.412Z,43.19
2018-03-27T11:46:40.404Z,43.38
2018-03-27T11:48:36.385Z,43.19
2018-03-27T11:49:36.327Z,43.69
2018-03-27T11:51:32.282Z,43.40
2018-03-27T11:52:32.274Z,43.12
2018-03-27T11:54:28.249Z,43.30
2018-03-27T11:55:28.219Z,43.30
2018-03-27T11:57:22.669Z,43.40
2018-03-27T11:58:22.673Z,43.30
2018-03-27T12:00:16.103Z,43.30
2018-03-27T12:01:16.109Z,43.30
2018-03-27T12:03:10.574Z,43.30
2018-03-27T12:04:11.504Z,42.94
2018-03-27T12:06:05.526Z,42.64
2018-03-27T12:07:05.519Z,43.02
2018-03-27T12:08:59.469Z,43.30
2018-03-27T12:09:58.429Z,43.59
2018-03-27T12:11:55.380Z,43.88
2018-03-27T12:12:54.383Z,43.79
2018-03-27T12:14:48.818Z,44.74
2018-03-27T12:15:48.803Z,44.65
2018-03-27T12:17:43.292Z,44.45
2018-03-27T12:18:43.779Z,44.84
2018-03-27T12:20:38.726Z,45.12
2018-03-27T12:21:38.709Z,45.12
2018-03-27T12:23:32.617Z,45.87
2018-03-27T12:24:32.196Z,46.34
2018-03-27T12:26:25.682Z,47.11
2018-03-27T12:27:26.673Z,47.27
2018-03-27T12:29:20.148Z,48.42
2018-03-27T12:30:20.652Z,48.42
2018-03-27T12:32:14.065Z,48.71
2018-03-27T12:33:14.049Z,48.61
2018-03-27T12:35:08.013Z,48.71
2018-03-27T12:36:07.997Z,48.99
2018-03-27T12:38:01.946Z,49.47
2018-03-27T12:39:02.957Z,49.95
2018-03-27T12:40:54.910Z,49.95
2018-03-27T12:41:54.907Z,50.62
2018-03-27T12:43:49.363Z,50.90
2018-03-27T12:44:49.359Z,50.90
2018-03-27T12:46:43.795Z,50.71
2018-03-27T12:47:44.325Z,50.71
2018-03-27T12:49:38.258Z,50.71
2018-03-27T12:50:38.776Z,51.29
2018-03-27T12:52:33.204Z,51.48
2018-03-27T12:53:33.190Z,51.67
2018-03-27T12:55:28.130Z,51.67
2018-03-27T12:56:27.633Z,51.93
2018-03-27T12:58:22.075Z,52.31
2018-03-27T12:59:22.093Z,52.59
2018-03-27T13:01:15.031Z,52.40
2018-03-27T13:02:15.015Z,52.50
2018-03-27T13:04:09.452Z,52.88
2018-03-27T13:05:08.451Z,52.59
2018-03-27T13:07:02.876Z,52.50
2018-03-27T13:08:02.879Z,52.59
2018-03-27T13:09:57.841Z,54.03
2018-03-27T13:10:57.834Z,55.84
2018-03-27T13:12:52.285Z,57.94
2018-03-27T13:13:52.712Z,59.92
2018-03-27T13:15:46.267Z,61.83
2018-03-27T13:16:46.221Z,62.49
2018-03-27T13:18:41.181Z,62.97
2018-03-27T13:19:42.106Z,63.54
2018-03-27T13:21:36.024Z,63.92
2018-03-27T13:22:36.522Z,64.47
2018-03-27T13:24:30.522Z,65.13
2018-03-27T13:25:30.024Z,65.33
2018-03-27T13:27:26.979Z,65.80
2018-03-27T13:28:26.484Z,65.52
2018-03-27T13:30:20.458Z,65.52
2018-03-27T13:31:21.368Z,65.80
2018-03-27T13:33:14.407Z,65.42
2018-03-27T13:34:14.401Z,64.88
2018-03-27T13:36:09.365Z,64.02
2018-03-27T13:37:08.853Z,63.70
2018-03-27T13:39:03.815Z,63.73
2018-03-27T13:40:03.261Z,63.54
2018-03-27T13:41:58.214Z,64.69
2018-03-27T13:42:58.217Z,64.12
2018-03-27T13:44:52.176Z,64.21
2018-03-27T13:45:52.152Z,63.92
2018-03-27T13:47:47.115Z,64.21
2018-03-27T13:48:45.590Z,64.53
2018-03-27T13:50:40.059Z,63.67
2018-03-27T13:51:40.039Z,64.15
2018-03-27T13:53:33.551Z,65.10
2018-03-27T13:54:33.487Z,63.86
2018-03-27T13:56:29.467Z,64.53
2018-03-27T13:57:29.445Z,64.15
2018-03-27T13:59:25.392Z,64.25
2018-03-27T14:00:24.403Z,64.53
2018-03-27T14:02:18.812Z,65.39
2018-03-27T14:03:17.287Z,64.62
2018-03-27T14:05:12.262Z,62.91
2018-03-27T14:06:12.264Z,62.91
2018-03-27T14:08:07.714Z,64.25
2018-03-27T14:09:08.708Z,64.53
2018-03-27T14:11:03.172Z,66.06
2018-03-27T14:12:03.663Z,66.15
2018-03-27T14:13:57.108Z,66.06
2018-03-27T14:14:57.100Z,65.39
2018-03-27T14:16:51.038Z,66.15
2018-03-27T14:17:50.060Z,66.53
2018-03-27T14:19:44.480Z,66.92
2018-03-27T14:20:44.487Z,66.88
2018-03-27T14:22:39.431Z,67.07
2018-03-27T14:23:38.971Z,67.36
2018-03-27T14:25:33.410Z,67.46
2018-03-27T14:26:34.820Z,67.04
2018-03-27T14:28:26.861Z,67.99
2018-03-27T14:29:27.376Z,67.61
2018-03-27T14:31:21.289Z,67.99
2018-03-27T14:32:21.759Z,68.66
2018-03-27T14:34:16.220Z,69.14
2018-03-27T14:35:15.696Z,68.57
2018-03-27T14:37:09.166Z,70.00
2018-03-27T14:38:09.162Z,69.81
2018-03-27T14:40:03.634Z,70.09
2018-03-27T14:41:04.610Z,70.38
2018-03-27T14:42:59.576Z,70.82
2018-03-27T14:43:58.059Z,70.82
2018-03-27T14:45:53.028Z,70.53
2018-03-27T14:46:53.453Z,70.72
2018-03-27T14:48:46.921Z,70.72
2018-03-27T14:49:46.915Z,71.30
2018-03-27T14:51:41.399Z,72.16
2018-03-27T14:52:41.367Z,71.77
2018-03-27T14:54:36.322Z,71.68
2018-03-27T14:55:35.834Z,72.06
2018-03-27T14:57:30.294Z,71.77
2018-03-27T14:58:30.778Z,72.06
2018-03-27T15:00:24.728Z,72.16
2018-03-27T15:01:24.714Z,71.68
2018-03-27T15:03:18.681Z,72.06
2018-03-27T15:04:18.668Z,72.16
2018-03-27T15:06:14.124Z,72.63
2018-03-27T15:07:14.092Z,72.44
2018-03-27T15:09:07.547Z,72.72
2018-03-27T15:10:07.531Z,72.63
2018-03-27T15:12:02.462Z,72.63
2018-03-27T15:13:02.456Z,73.30
2018-03-27T15:14:57.860Z,73.58
2018-03-27T15:15:57.861Z,73.49
2018-03-27T15:17:52.826Z,73.49
2018-03-27T15:18:52.311Z,73.74
2018-03-27T15:20:45.795Z,73.55
2018-03-27T15:21:46.276Z,74.50
2018-03-27T15:23:39.707Z,74.40
2018-03-27T15:24:39.197Z,74.50
2018-03-27T15:26:34.158Z,75.26
2018-03-27T15:27:33.641Z,74.79
2018-03-27T15:29:27.595Z,75.07
2018-03-27T15:30:27.068Z,75.07
2018-03-27T15:32:22.021Z,74.79
2018-03-27T15:33:21.501Z,75.26
2018-03-27T15:35:15.948Z,75.74
2018-03-27T15:36:15.938Z,75.84
2018-03-27T15:38:10.409Z,75.51
2018-03-27T15:39:10.376Z,75.99
2018-03-27T15:41:03.841Z,76.65
2018-03-27T15:42:03.804Z,77.22
2018-03-27T15:43:58.754Z,76.37
2018-03-27T15:44:58.231Z,76.37
2018-03-27T15:46:54.703Z,76.84
2018-03-27T15:47:54.682Z,76.37
2018-03-27T15:49:49.126Z,76.37
2018-03-27T15:50:48.605Z,76.46
2018-03-27T15:52:44.045Z,76.08
2018-03-27T15:53:43.241Z,76.37
2018-03-27T15:55:41.216Z,76.18
2018-03-27T15:56:39.174Z,76.14
2018-03-27T15:58:34.646Z,75.76
2018-03-27T15:59:34.138Z,75.60
2018-03-27T16:01:27.050Z,76.71
2018-03-27T16:02:27.536Z,76.33
2018-03-27T16:04:23.978Z,76.42
2018-03-27T16:05:22.959Z,76.90
2018-03-27T16:07:18.898Z,77.19
2018-03-27T16:08:19.426Z,77.56
2018-03-27T16:10:13.361Z,77.28
2018-03-27T16:11:13.855Z,77.76
2018-03-27T16:13:08.272Z,77.85
2018-03-27T16:14:07.277Z,77.95
2018-03-27T16:16:02.746Z,78.71
2018-03-27T16:17:02.712Z,78.90
2018-03-27T16:18:57.680Z,79.94
2018-03-27T16:19:57.115Z,79.47
2018-03-27T16:21:50.537Z,79.66
2018-03-27T16:22:50.555Z,79.66
2018-03-27T16:24:44.499Z,79.24
2018-03-27T16:25:43.982Z,79.05
2018-03-27T16:27:38.918Z,79.43
2018-03-27T16:28:38.924Z,80.38
2018-03-27T16:30:33.366Z,80.29
2018-03-27T16:31:32.843Z,80.19
2018-03-27T16:33:27.293Z,80.47
2018-03-27T16:34:27.327Z,81.24
2018-03-27T16:36:23.252Z,81.05
2018-03-27T16:37:21.733Z,80.66
2018-03-27T16:39:16.142Z,80.47
2018-03-27T16:40:16.675Z,80.38
2018-03-27T16:42:09.612Z,81.33
2018-03-27T16:43:10.109Z,81.62
2018-03-27T16:45:05.038Z,81.62
2018-03-27T16:46:04.514Z,81.62
2018-03-27T16:47:58.415Z,82.28
2018-03-27T16:48:58.957Z,82.00
2018-03-27T16:50:51.926Z,82.19
2018-03-27T16:51:52.380Z,82.86
2018-03-27T16:53:46.276Z,83.14
2018-03-27T16:54:46.287Z,83.04
2018-03-27T16:56:41.722Z,82.81
2018-03-27T16:57:40.714Z,82.53
2018-03-27T16:59:34.198Z,82.81
2018-03-27T17:00:34.164Z,82.48
2018-03-27T17:02:28.615Z,83.10
2018-03-27T17:03:28.595Z,82.91
2018-03-27T17:05:23.535Z,82.81
2018-03-27T17:06:23.541Z,83.67
2018-03-27T17:08:18.009Z,83.86
2018-03-27T17:09:17.480Z,83.76
2018-03-27T17:11:12.436Z,83.76
2018-03-27T17:12:11.918Z,83.67
2018-03-27T17:14:06.881Z,83.67
2018-03-27T17:15:05.353Z,83.76
2018-03-27T17:16:58.792Z,83.76
2018-03-27T17:17:58.793Z,84.24
2018-03-27T17:19:53.747Z,84.14
2018-03-27T17:20:53.238Z,83.76
2018-03-27T17:22:47.615Z,84.24
2018-03-27T17:23:46.716Z,84.52
2018-03-27T17:25:40.657Z,84.52
2018-03-27T17:26:40.648Z,84.62
2018-03-27T17:28:35.573Z,84.62
2018-03-27T17:29:35.079Z,85.10
2018-03-27T17:31:28.006Z,84.62
2018-03-27T17:32:27.961Z,84.91
2018-03-27T17:34:21.417Z,84.81
2018-03-27T17:35:21.405Z,84.81
2018-03-27T17:37:15.361Z,84.81
2018-03-27T17:38:15.787Z,85.00
2018-03-27T17:40:08.263Z,85.28
2018-03-27T17:41:08.272Z,85.57
2018-03-27T17:43:04.715Z,85.19
2018-03-27T17:44:02.727Z,85.19
2018-03-27T17:45:57.687Z,85.57
2018-03-27T17:46:57.170Z,86.05
2018-03-27T17:48:54.634Z,85.47
2018-03-27T17:49:51.578Z,85.57
2018-03-27T17:51:45.016Z,85.76
2018-03-27T17:52:45.503Z,85.76
2018-03-27T17:54:39.444Z,85.57
2018-03-27T17:55:39.405Z,85.38
2018-03-27T17:57:33.875Z,85.38
2018-03-27T17:58:34.355Z,85.19
2018-03-27T18:00:28.770Z,85.86
2018-03-27T18:01:27.773Z,85.95
2018-03-27T18:03:21.694Z,85.95
2018-03-27T18:04:20.685Z,86.14
2018-03-27T18:06:14.106Z,86.05
2018-03-27T18:07:15.637Z,86.14
2018-03-27T18:09:08.515Z,85.86
2018-03-27T18:10:08.500Z,85.95
2018-03-27T18:12:01.918Z,85.95
2018-03-27T18:13:01.933Z,86.33
2018-03-27T18:14:56.361Z,86.24
2018-03-27T18:15:56.881Z,86.33
2018-03-27T18:17:49.817Z,86.52
2018-03-27T18:18:49.797Z,86.61
2018-03-27T18:20:43.735Z,86.47
2018-03-27T18:21:43.239Z,86.71
2018-03-27T18:23:36.674Z,86.57
2018-03-27T18:24:37.165Z,87.52
2018-03-27T18:26:31.102Z,87.24
2018-03-27T18:27:30.106Z,87.34
2018-03-27T18:29:26.564Z,87.14
2018-03-27T18:30:24.545Z,87.34
2018-03-27T18:32:19.485Z,87.71
2018-03-27T18:33:17.973Z,87.52
2018-03-27T18:35:12.429Z,88.09
2018-03-27T18:36:11.428Z,88.09
2018-03-27T18:38:05.857Z,87.90
2018-03-27T18:39:05.368Z,88.00
2018-03-27T18:41:00.295Z,88.95
2018-03-27T18:41:59.264Z,88.57
2018-03-27T18:43:53.723Z,88.57